createdAt,value
2018-08-03T00:00:26.752Z,12.90
2018-08-03T00:02:55.036Z,13.47
2018-08-03T00:05:23.041Z,12.43
2018-08-03T00:07:51.322Z,12.50
2018-08-03T00:10:19.585Z,11.93
2018-08-03T00:12:47.906Z,12.37
2018-08-03T00:15:16.201Z,12.47
2018-08-03T00:17:44.492Z,13.40
2018-08-03T00:20:12.809Z,12.70
2018-08-03T00:22:41.101Z,13.17
2018-08-03T00:25:09.432Z,12.77
2018-08-03T00:27:37.526Z,12.37
2018-08-03T00:30:06.305Z,12.57
2018-08-03T00:32:34.621Z,10.17
2018-08-03T00:35:02.921Z,12.07
2018-08-03T00:37:31.187Z,12.27
2018-08-03T00:39:59.476Z,12.43
2018-08-03T00:42:27.780Z,11.27
2018-08-03T00:44:56.058Z,12.43
2018-08-03T00:47:24.355Z,12.80
2018-08-03T00:49:52.628Z,10.57
2018-08-03T00:52:20.931Z,11.97
2018-08-03T00:54:49.207Z,12.10
2018-08-03T00:57:17.501Z,12.20
2018-08-03T00:59:45.764Z,11.43
2018-08-03T01:02:14.061Z,11.90
2018-08-03T01:04:42.355Z,12.20
2018-08-03T01:07:10.627Z,13.70
2018-08-03T01:09:38.931Z,13.47
2018-08-03T01:12:07.286Z,12.93
2018-08-03T01:14:35.549Z,12.63
2018-08-03T01:17:03.877Z,13.90
2018-08-03T01:19:32.148Z,13.53
2018-08-03T01:22:00.452Z,12.97
2018-08-03T01:24:28.737Z,13.37
2018-08-03T01:26:57.035Z,13.27
2018-08-03T01:29:25.299Z,14.47
2018-08-03T01:31:53.579Z,14.17
2018-08-03T01:34:21.868Z,13.70
2018-08-03T01:36:49.880Z,13.50
2018-08-03T01:39:18.168Z,11.90
2018-08-03T01:41:46.448Z,13.30
2018-08-03T01:44:14.721Z,13.70
2018-08-03T01:46:43.030Z,14.87
2018-08-03T01:49:11.328Z,14.60
2018-08-03T01:51:39.327Z,14.37
2018-08-03T01:54:07.625Z,13.53
2018-08-03T01:56:35.908Z,13.37
2018-08-03T01:59:04.257Z,13.10
2018-08-03T02:01:32.519Z,11.70
2018-08-03T02:04:00.814Z,11.77
2018-08-03T02:06:29.684Z,12.00
2018-08-03T02:08:58.026Z,12.17
2018-08-03T02:11:26.292Z,11.70
2018-08-03T02:13:54.581Z,13.43
2018-08-03T02:16:22.832Z,13.83
2018-08-03T02:18:51.126Z,14.40
2018-08-03T02:21:19.401Z,12.40
2018-08-03T02:23:47.676Z,11.63
2018-08-03T02:26:15.948Z,12.77
2018-08-03T02:28:44.219Z,14.10
2018-08-03T02:31:12.497Z,14.03
2018-08-03T02:33:40.773Z,14.43
2018-08-03T02:36:09.065Z,13.47
2018-08-03T02:38:37.370Z,11.27
2018-08-03T02:41:06.093Z,11.90
2018-08-03T02:43:34.370Z,13.77
2018-08-03T02:46:02.668Z,14.00
2018-08-03T02:48:30.965Z,11.87
2018-08-03T02:50:59.248Z,13.83
2018-08-03T02:53:27.536Z,14.00
2018-08-03T02:55:55.836Z,14.63
2018-08-03T02:58:24.109Z,14.90
2018-08-03T03:00:52.423Z,13.67
2018-08-03T03:03:20.717Z,15.33
2018-08-03T03:05:48.997Z,15.00
2018-08-03T03:08:17.288Z,14.83
2018-08-03T03:10:45.561Z,15.37
2018-08-03T03:13:13.844Z,14.90
2018-08-03T03:15:42.127Z,14.07
2018-08-03T03:18:10.135Z,14.43
2018-08-03T03:20:38.421Z,14.50
2018-08-03T03:23:06.741Z,14.80
2018-08-03T03:25:35.021Z,15.17
2018-08-03T03:28:03.290Z,14.80
2018-08-03T03:30:31.616Z,10.63
2018-08-03T03:32:59.901Z,11.70
2018-08-03T03:35:28.170Z,12.00
2018-08-03T03:37:56.442Z,11.80
2018-08-03T03:40:24.708Z,11.93
2018-08-03T03:42:52.991Z,12.00
2018-08-03T03:45:21.267Z,11.77
2018-08-03T03:47:49.554Z,12.80
2018-08-03T03:50:17.841Z,12.80
2018-08-03T03:52:46.133Z,15.03
2018-08-03T03:55:14.411Z,15.50
2018-08-03T03:57:42.421Z,14.77
2018-08-03T04:00:10.704Z,12.07
2018-08-03T04:02:38.992Z,11.57
2018-08-03T04:05:07.998Z,14.50
2018-08-03T04:07:36.285Z,14.53
2018-08-03T04:10:04.913Z,14.03
2018-08-03T04:12:33.205Z,12.37
2018-08-03T04:15:01.520Z,12.07
2018-08-03T04:17:29.845Z,14.17
2018-08-03T04:19:58.127Z,15.77
2018-08-03T04:22:26.413Z,14.63
2018-08-03T04:24:54.812Z,14.40
2018-08-03T04:27:23.096Z,14.33
2018-08-03T04:29:51.378Z,14.90
2018-08-03T04:32:19.673Z,15.03
2018-08-03T04:34:47.956Z,14.27
2018-08-03T04:37:16.269Z,14.90
2018-08-03T04:39:44.581Z,14.20
2018-08-03T04:42:12.955Z,13.93
2018-08-03T04:44:41.189Z,14.80
2018-08-03T04:47:09.458Z,13.57
2018-08-03T04:49:37.740Z,11.93
2018-08-03T04:52:06.066Z,11.90
2018-08-03T04:54:34.347Z,12.47
2018-08-03T04:57:02.647Z,11.70
2018-08-03T04:59:30.956Z,11.43
2018-08-03T05:01:59.240Z,12.00
2018-08-03T05:04:27.545Z,12.67
2018-08-03T05:06:55.828Z,12.40
2018-08-03T05:09:24.092Z,12.27
2018-08-03T05:11:52.416Z,11.77
2018-08-03T05:14:20.683Z,12.73
2018-08-03T05:16:48.980Z,11.97
2018-08-03T05:19:17.239Z,13.57
2018-08-03T05:21:45.549Z,12.00
2018-08-03T05:24:13.834Z,12.27
2018-08-03T05:26:42.136Z,11.63
2018-08-03T05:29:10.416Z,11.87
2018-08-03T05:31:38.704Z,12.07
2018-08-03T05:34:07.101Z,13.73
2018-08-03T05:36:35.411Z,14.37
2018-08-03T05:39:04.523Z,14.03
2018-08-03T05:41:32.809Z,13.43
2018-08-03T05:44:01.102Z,13.23
2018-08-03T05:46:29.370Z,12.73
2018-08-03T05:49:04.463Z,13.23
2018-08-03T05:51:32.740Z,13.90
2018-08-03T05:54:01.026Z,13.80
2018-08-03T05:56:29.311Z,14.33
2018-08-03T05:58:57.588Z,13.70
2018-08-03T06:01:25.881Z,13.80
2018-08-03T06:03:54.209Z,12.03
2018-08-03T06:06:22.456Z,12.07
2018-08-03T06:08:50.734Z,11.60
2018-08-03T06:11:19.017Z,12.80
2018-08-03T06:13:47.301Z,12.17
2018-08-03T06:16:15.613Z,11.23
2018-08-03T06:18:43.885Z,11.97
2018-08-03T06:21:12.166Z,11.43
2018-08-03T06:23:40.444Z,11.17
2018-08-03T06:26:08.801Z,11.77
2018-08-03T06:28:37.176Z,12.83
2018-08-03T06:31:05.413Z,12.30
2018-08-03T06:33:33.708Z,13.07
2018-08-03T06:36:02.012Z,13.20
2018-08-03T06:38:30.303Z,12.90
2018-08-03T06:40:58.580Z,12.77
2018-08-03T06:43:26.923Z,13.77
2018-08-03T06:45:55.236Z,11.97
2018-08-03T06:48:24.116Z,11.17
2018-08-03T06:50:52.619Z,13.20
2018-08-03T06:53:20.890Z,12.73
2018-08-03T06:55:49.175Z,13.50
2018-08-03T06:58:17.485Z,29.20
2018-08-03T07:00:45.798Z,13.00
2018-08-03T07:03:14.053Z,14.53
2018-08-03T07:05:42.333Z,14.33
2018-08-03T07:08:10.891Z,18.33
2018-08-03T07:10:39.184Z,16.03
2018-08-03T07:13:07.518Z,14.90
2018-08-03T07:15:35.792Z,14.93
2018-08-03T07:18:04.109Z,12.87
2018-08-03T07:20:32.966Z,14.50
2018-08-03T07:23:01.210Z,16.77
2018-08-03T07:25:29.504Z,14.33
2018-08-03T07:27:57.772Z,23.93
2018-08-03T07:30:26.041Z,15.90
2018-08-03T07:32:54.309Z,14.37
2018-08-03T07:35:22.590Z,18.37
2018-08-03T07:37:51.310Z,20.07
2018-08-03T07:40:19.595Z,13.30
2018-08-03T07:42:47.922Z,19.90
2018-08-03T07:45:16.239Z,27.03
2018-08-03T07:47:44.520Z,28.27
2018-08-03T07:50:12.835Z,16.83
2018-08-03T07:52:41.530Z,19.73
2018-08-03T07:55:09.821Z,13.70
2018-08-03T07:57:38.145Z,14.70
2018-08-03T08:00:06.732Z,14.70
2018-08-03T08:02:35.016Z,14.07
2018-08-03T08:05:03.296Z,14.47
2018-08-03T08:07:31.653Z,14.50
2018-08-03T08:09:59.973Z,13.97
2018-08-03T08:12:28.241Z,14.33
2018-08-03T08:14:56.561Z,18.73
2018-08-03T08:17:24.937Z,18.23
2018-08-03T08:19:53.376Z,14.30
2018-08-03T08:22:21.912Z,16.77
2018-08-03T08:24:50.123Z,15.20
2018-08-03T08:27:18.825Z,17.03
2018-08-03T08:29:47.140Z,14.57
2018-08-03T08:32:15.527Z,14.87
2018-08-03T08:34:43.803Z,15.27
2018-08-03T08:37:12.092Z,15.90
2018-08-03T08:39:40.397Z,15.00
2018-08-03T08:42:08.677Z,15.70
2018-08-03T08:44:36.960Z,16.33
2018-08-03T08:47:05.272Z,15.63
2018-08-03T08:49:33.558Z,16.70
2018-08-03T08:52:01.832Z,16.07
2018-08-03T08:54:30.118Z,15.90
2018-08-03T08:56:58.401Z,16.77
2018-08-03T08:59:26.697Z,15.40
2018-08-03T09:01:54.973Z,15.97
2018-08-03T09:04:23.261Z,15.93
2018-08-03T09:06:51.631Z,15.20
2018-08-03T09:09:19.872Z,14.90
2018-08-03T09:11:48.165Z,15.50
2018-08-03T09:14:16.436Z,20.07
2018-08-03T09:16:44.708Z,16.13
2018-08-03T09:19:12.996Z,16.40
2018-08-03T09:21:41.293Z,16.37
2018-08-03T09:24:09.558Z,16.20
2018-08-03T09:26:37.852Z,18.87
2018-08-03T09:29:06.266Z,15.77
2018-08-03T09:31:34.545Z,15.03
2018-08-03T09:34:02.838Z,17.30
2018-08-03T09:36:31.148Z,15.80
2018-08-03T09:38:59.126Z,17.50
2018-08-03T09:41:27.413Z,16.40
2018-08-03T09:43:55.693Z,16.27
2018-08-03T09:46:24.012Z,15.40
2018-08-03T09:48:52.460Z,16.37
2018-08-03T09:51:20.752Z,16.17
2018-08-03T09:53:49.103Z,16.70
2018-08-03T09:56:17.409Z,17.77
2018-08-03T09:58:45.692Z,20.83
2018-08-03T10:01:13.978Z,15.70
2018-08-03T10:03:43.013Z,15.80
2018-08-03T10:06:12.203Z,16.87
2018-08-03T10:08:40.482Z,16.87
2018-08-03T10:11:09.268Z,15.57
2018-08-03T10:13:37.571Z,15.83
2018-08-03T10:16:05.868Z,17.10
2018-08-03T10:18:34.158Z,18.77
2018-08-03T10:21:02.495Z,16.60
2018-08-03T10:23:30.749Z,16.57
2018-08-03T10:25:59.027Z,15.93
2018-08-03T10:28:27.317Z,18.03
2018-08-03T10:30:55.609Z,15.50
2018-08-03T10:33:23.901Z,14.83
2018-08-03T10:35:52.221Z,15.43
2018-08-03T10:38:20.517Z,16.20
2018-08-03T10:40:48.788Z,22.77
2018-08-03T10:43:17.086Z,16.70
2018-08-03T10:45:45.384Z,15.00
2018-08-03T10:48:13.687Z,15.10
2018-08-03T10:50:41.949Z,14.53
2018-08-03T10:53:10.416Z,13.57
2018-08-03T10:55:38.692Z,14.37
2018-08-03T10:58:07.259Z,13.60
2018-08-03T11:00:35.548Z,13.80
2018-08-03T11:03:03.909Z,13.37
2018-08-03T11:05:32.193Z,19.77
2018-08-03T11:08:00.484Z,16.67
2018-08-03T11:10:28.768Z,15.20
2018-08-03T11:12:57.068Z,14.30
2018-08-03T11:15:25.344Z,14.40
2018-08-03T11:17:53.645Z,16.13
2018-08-03T11:20:21.957Z,14.53
2018-08-03T11:22:50.248Z,15.90
2018-08-03T11:25:18.551Z,15.57
2018-08-03T11:27:46.841Z,14.17
2018-08-03T11:30:15.123Z,14.20
2018-08-03T11:32:43.732Z,13.83
2018-08-03T11:35:12.065Z,14.27
2018-08-03T11:37:41.320Z,14.37
2018-08-03T11:40:10.690Z,13.97
2018-08-03T11:42:39.993Z,13.87
2018-08-03T11:45:10.343Z,13.77
2018-08-03T11:47:38.909Z,13.03
2018-08-03T11:50:09.052Z,14.17
2018-08-03T11:52:37.325Z,23.67
2018-08-03T11:55:05.629Z,12.90
2018-08-03T11:57:33.968Z,12.53
2018-08-03T12:00:02.307Z,13.03
2018-08-03T12:02:30.584Z,13.63
2018-08-03T12:04:58.855Z,29.40
2018-08-03T12:07:27.156Z,13.43
2018-08-03T12:09:55.435Z,13.40
2018-08-03T12:12:23.762Z,21.47
2018-08-03T12:14:52.288Z,13.43
2018-08-03T12:17:20.582Z,12.27
2018-08-03T12:19:48.907Z,12.57
2018-08-03T12:22:17.194Z,16.63
2018-08-03T12:24:45.564Z,30.53
2018-08-03T12:27:13.842Z,12.73
2018-08-03T12:29:42.124Z,13.00
2018-08-03T12:32:10.557Z,12.00
2018-08-03T12:34:38.825Z,15.97
2018-08-03T12:37:07.147Z,12.07
2018-08-03T12:39:35.387Z,13.30
2018-08-03T12:42:03.660Z,11.40
2018-08-03T12:44:31.964Z,11.30
2018-08-03T12:47:00.301Z,11.90
2018-08-03T12:49:28.628Z,13.47
2018-08-03T12:51:56.977Z,13.07
2018-08-03T12:54:25.278Z,13.17
2018-08-03T12:56:53.536Z,13.40
2018-08-03T12:59:21.824Z,11.83
2018-08-03T13:01:50.117Z,12.83
2018-08-03T13:04:18.479Z,12.47
2018-08-03T13:06:46.772Z,12.47
2018-08-03T13:09:15.052Z,13.20
2018-08-03T13:11:43.332Z,14.07
2018-08-03T13:14:11.620Z,13.37
2018-08-03T13:16:39.906Z,13.63
2018-08-03T13:19:08.203Z,13.27
2018-08-03T13:21:38.761Z,14.60
2018-08-03T13:24:07.284Z,13.20
2018-08-03T13:26:35.597Z,13.43
2018-08-03T13:29:03.884Z,13.77
2018-08-03T13:31:32.564Z,13.17
2018-08-03T13:34:00.849Z,12.93
2018-08-03T13:36:30.230Z,13.77
2018-08-03T13:38:58.552Z,15.97
2018-08-03T13:41:26.783Z,12.17
2018-08-03T13:43:55.081Z,14.90
2018-08-03T13:46:23.385Z,15.27
2018-08-03T13:48:51.692Z,11.80
2018-08-03T13:51:20.299Z,11.17
2018-08-03T13:53:49.000Z,10.70
2018-08-03T13:56:18.080Z,10.50
2018-08-03T13:58:46.860Z,11.67
2018-08-03T14:01:26.391Z,10.90
2018-08-03T14:03:54.791Z,10.50
2018-08-03T14:06:23.060Z,10.80
2018-08-03T14:08:51.333Z,11.07
2018-08-03T14:11:20.138Z,10.77
2018-08-03T14:13:48.589Z,11.07
2018-08-03T14:16:16.872Z,15.90
2018-08-03T14:18:46.391Z,12.00
2018-08-03T14:21:14.704Z,12.27
2018-08-03T14:23:49.708Z,11.60
2018-08-03T14:26:18.020Z,12.70
2018-08-03T14:28:46.308Z,12.63
2018-08-03T14:31:14.628Z,12.00
2018-08-03T14:33:42.893Z,11.90
2018-08-03T14:36:11.161Z,11.53
2018-08-03T14:38:39.433Z,12.40
2018-08-03T14:41:07.776Z,11.37
2018-08-03T14:43:36.044Z,11.87
2018-08-03T14:46:04.382Z,11.93
2018-08-03T14:48:32.641Z,12.43
2018-08-03T14:51:00.959Z,11.23
2018-08-03T14:53:29.253Z,10.30
2018-08-03T14:55:57.529Z,10.60
2018-08-03T14:58:25.816Z,11.07
2018-08-03T15:00:54.105Z,10.87
2018-08-03T15:03:22.389Z,11.60
2018-08-03T15:05:50.692Z,11.73
2018-08-03T15:08:18.961Z,11.47
2018-08-03T15:10:47.252Z,12.00
2018-08-03T15:13:15.561Z,11.97
2018-08-03T15:15:43.855Z,11.87
2018-08-03T15:18:12.177Z,11.23
2018-08-03T15:20:41.304Z,13.10
2018-08-03T15:23:09.690Z,11.27
2018-08-03T15:25:37.990Z,11.00
2018-08-03T15:28:06.297Z,15.40
2018-08-03T15:30:34.593Z,10.57
2018-08-03T15:33:02.933Z,11.00
2018-08-03T15:35:31.320Z,10.60
2018-08-03T15:37:59.632Z,9.50
2018-08-03T15:40:27.895Z,9.33
2018-08-03T15:42:55.898Z,9.67
2018-08-03T15:45:24.216Z,10.10
2018-08-03T15:47:52.512Z,10.13
2018-08-03T15:50:20.535Z,9.70
2018-08-03T15:52:48.837Z,10.00
2018-08-03T15:55:17.125Z,10.43
2018-08-03T15:57:45.449Z,15.40
2018-08-03T16:00:13.748Z,13.60
2018-08-03T16:02:48.592Z,10.63
2018-08-03T16:05:16.878Z,10.80
2018-08-03T16:07:45.157Z,11.15
2018-08-03T16:10:13.465Z,11.63
2018-08-03T16:12:41.809Z,10.82
2018-08-03T16:15:10.048Z,11.03
2018-08-03T16:17:38.513Z,11.08
2018-08-03T16:20:06.828Z,10.88
2018-08-03T16:22:35.492Z,11.05
2018-08-03T16:25:04.317Z,11.80
2018-08-03T16:27:32.660Z,11.45
2018-08-03T16:30:00.970Z,11.53
2018-08-03T16:32:29.280Z,11.65
2018-08-03T16:34:57.597Z,11.97
2018-08-03T16:37:25.901Z,11.85
2018-08-03T16:39:54.271Z,11.88
2018-08-03T16:42:22.568Z,11.90
2018-08-03T16:44:50.858Z,11.48
2018-08-03T16:47:19.198Z,11.90
2018-08-03T16:49:47.552Z,14.30
2018-08-03T16:52:15.846Z,12.47
2018-08-03T16:54:44.145Z,12.13
2018-08-03T16:57:12.441Z,16.70
2018-08-03T16:59:40.724Z,12.23
2018-08-03T17:02:09.042Z,11.90
2018-08-03T17:04:37.365Z,11.90
2018-08-03T17:07:05.905Z,12.00
2018-08-03T17:09:34.637Z,11.48
2018-08-03T17:12:02.965Z,12.23
2018-08-03T17:14:31.274Z,12.10
2018-08-03T17:16:59.607Z,12.67
2018-08-03T17:19:27.863Z,12.07
2018-08-03T17:21:56.192Z,11.27
2018-08-03T17:24:24.506Z,11.73
2018-08-03T17:26:52.549Z,11.17
2018-08-03T17:29:20.823Z,11.50
2018-08-03T17:31:49.117Z,10.87
2018-08-03T17:34:17.393Z,11.10
2018-08-03T17:36:45.700Z,10.90
2018-08-03T17:39:13.977Z,11.50
2018-08-03T17:41:42.285Z,11.70
2018-08-03T17:44:10.616Z,11.60
2018-08-03T17:46:38.947Z,11.03
2018-08-03T17:49:07.246Z,10.43
2018-08-03T17:51:35.532Z,12.13
2018-08-03T17:54:03.876Z,13.77
2018-08-03T17:56:32.167Z,14.80
2018-08-03T17:59:00.490Z,15.03
2018-08-03T18:01:28.866Z,12.87
2018-08-03T18:03:57.131Z,11.60
2018-08-03T18:06:25.417Z,11.13
2018-08-03T18:08:53.721Z,11.50
2018-08-03T18:11:22.017Z,11.77
2018-08-03T18:13:50.373Z,10.97
2018-08-03T18:16:18.655Z,11.10
2018-08-03T18:18:46.958Z,11.40
2018-08-03T18:21:15.228Z,11.13
2018-08-03T18:23:43.504Z,11.73
2018-08-03T18:26:11.776Z,11.27
2018-08-03T18:28:40.104Z,12.10
2018-08-03T18:31:08.349Z,12.27
2018-08-03T18:33:36.645Z,12.40
2018-08-03T18:36:04.991Z,11.70
2018-08-03T18:38:33.261Z,11.80
2018-08-03T18:41:01.601Z,11.83
2018-08-03T18:43:29.885Z,12.40
2018-08-03T18:45:58.192Z,11.70
2018-08-03T18:48:26.492Z,11.93
2018-08-03T18:50:54.857Z,11.43
2018-08-03T18:53:23.164Z,11.77
2018-08-03T18:55:51.439Z,12.53
2018-08-03T18:58:19.757Z,12.00
2018-08-03T19:00:48.042Z,15.07
2018-08-03T19:03:16.347Z,16.80
2018-08-03T19:05:44.636Z,14.13
2018-08-03T19:08:12.924Z,12.87
2018-08-03T19:10:41.309Z,11.87
2018-08-03T19:13:09.584Z,13.20
2018-08-03T19:15:37.881Z,13.70
2018-08-03T19:18:06.217Z,13.60
2018-08-03T19:20:34.521Z,13.57
2018-08-03T19:23:02.515Z,14.77
2018-08-03T19:25:30.866Z,15.97
2018-08-03T19:27:59.133Z,13.50
2018-08-03T19:30:27.500Z,12.97
2018-08-03T19:32:55.721Z,12.93
2018-08-03T19:35:24.025Z,15.60
2018-08-03T19:37:52.428Z,12.87
2018-08-03T19:40:20.641Z,13.83
2018-08-03T19:42:48.936Z,12.07
2018-08-03T19:45:17.620Z,14.03
2018-08-03T19:47:45.897Z,15.60
2018-08-03T19:50:14.197Z,12.60
2018-08-03T19:52:42.536Z,13.13
2018-08-03T19:55:10.773Z,13.03
2018-08-03T19:57:39.109Z,13.17
2018-08-03T20:00:09.733Z,14.50
2018-08-03T20:02:38.201Z,12.40
2018-08-03T20:05:06.977Z,12.80
2018-08-03T20:07:35.224Z,14.90
2018-08-03T20:10:03.752Z,13.00
2018-08-03T20:12:32.342Z,13.47
2018-08-03T20:15:00.670Z,13.57
2018-08-03T20:17:29.005Z,13.50
2018-08-03T20:19:57.277Z,13.53
2018-08-03T20:22:25.567Z,13.73
2018-08-03T20:24:53.881Z,13.80
2018-08-03T20:27:22.218Z,13.30
2018-08-03T20:29:50.496Z,14.27
2018-08-03T20:32:18.851Z,13.53
2018-08-03T20:34:46.855Z,14.27
2018-08-03T20:37:15.232Z,15.33
2018-08-03T20:39:43.528Z,18.40
2018-08-03T20:42:11.807Z,17.63
2018-08-03T20:44:40.196Z,17.80
2018-08-03T20:47:08.430Z,17.60
2018-08-03T20:49:36.708Z,17.27
2018-08-03T20:52:05.049Z,17.93
2018-08-03T20:54:33.332Z,20.37
2018-08-03T20:57:01.637Z,21.37
2018-08-03T20:59:29.915Z,20.07
2018-08-03T21:01:58.236Z,22.53
2018-08-03T21:04:26.536Z,19.37
2018-08-03T21:06:54.898Z,18.17
2018-08-03T21:09:23.188Z,16.23
2018-08-03T21:11:51.495Z,18.43
2018-08-03T21:14:19.784Z,20.13
2018-08-03T21:16:48.066Z,19.03
2018-08-03T21:19:16.352Z,19.67
2018-08-03T21:21:44.644Z,16.50
2018-08-03T21:24:12.924Z,17.00
2018-08-03T21:26:41.233Z,17.67
2018-08-03T21:29:09.507Z,17.10
2018-08-03T21:31:37.801Z,17.03
2018-08-03T21:34:06.077Z,18.23
2018-08-03T21:36:34.364Z,18.00
2018-08-03T21:39:02.717Z,17.47
2018-08-03T21:41:30.993Z,17.20
2018-08-03T21:43:59.265Z,17.77
2018-08-03T21:46:27.543Z,17.63
2018-08-03T21:48:55.841Z,16.43
2018-08-03T21:51:24.103Z,16.50
2018-08-03T21:53:52.393Z,16.77
2018-08-03T21:56:20.682Z,16.73
2018-08-03T21:58:48.948Z,17.77
2018-08-03T22:01:17.228Z,16.40
2018-08-03T22:03:45.557Z,16.67
2018-08-03T22:06:13.856Z,16.50
2018-08-03T22:08:41.851Z,16.47
2018-08-03T22:11:10.145Z,16.20
2018-08-03T22:13:38.445Z,16.33
2018-08-03T22:16:06.756Z,16.47
2018-08-03T22:18:35.056Z,17.37
2018-08-03T22:21:03.484Z,17.60
2018-08-03T22:23:31.837Z,16.33
2018-08-03T22:25:59.831Z,16.60
2018-08-03T22:28:28.134Z,16.13
2018-08-03T22:30:56.126Z,16.47
2018-08-03T22:33:24.425Z,17.00
2018-08-03T22:35:52.704Z,17.37
2018-08-03T22:38:20.975Z,17.23
2018-08-03T22:40:49.251Z,15.93
2018-08-03T22:43:17.521Z,16.70
2018-08-03T22:45:45.796Z,17.90
2018-08-03T22:48:14.076Z,17.33
2018-08-03T22:50:42.378Z,16.37
2018-08-03T22:53:10.712Z,17.10
2018-08-03T22:55:39.032Z,16.83
2018-08-03T22:58:07.359Z,18.20
2018-08-03T23:00:35.696Z,17.07
2018-08-03T23:03:04.076Z,18.20
2018-08-03T23:05:32.384Z,16.63
2018-08-03T23:08:01.036Z,18.20
2018-08-03T23:10:29.328Z,17.73
2018-08-03T23:12:57.694Z,18.03
2018-08-03T23:15:26.035Z,17.30
2018-08-03T23:17:54.362Z,17.93
2018-08-03T23:20:22.756Z,17.80
2018-08-03T23:22:50.804Z,17.23
2018-08-03T23:25:19.124Z,16.87
2018-08-03T23:27:47.407Z,17.67
2018-08-03T23:30:15.717Z,17.60
2018-08-03T23:32:44.028Z,17.03
2018-08-03T23:35:12.342Z,17.20
2018-08-03T23:37:40.643Z,17.43
2018-08-03T23:40:08.945Z,18.60
2018-08-03T23:42:37.252Z,18.23
2018-08-03T23:45:06.433Z,18.03
2018-08-03T23:47:34.537Z,17.90
2018-08-03T23:50:02.883Z,18.73
2018-08-03T23:52:30.889Z,17.63
2018-08-03T23:54:59.192Z,18.30
2018-08-03T23:57:27.480Z,18.73
2018-08-03T23:59:55.769Z,18.20
